Time;durP1;ratioP1;P1;durP2;ratioP2;P2;SDS_P1;SDS_P2;PMS_P1;PMS_P2;Temp;Humidity;BMP_temperature;BMP_pressure;BME280_temperature;BME280_humidity;BME280_pressure;Samples;Min_cycle;Max_cycle;Signal;HPM_P1;HPM_P2
2021/06/19 00:00:32;;;;;;;4.78;1.70;;;22.80;99.90;;;21.65;65.15;100931.75;3519857;40;102379;-41
2021/06/19 00:03:00;;;;;;;3.38;1.73;;;22.70;99.90;;;21.62;65.00;100928.72;3520724;40;102367;-43
2021/06/19 00:05:29;;;;;;;3.75;1.42;;;22.70;99.90;;;21.58;65.11;100938.69;3520308;40;102520;-43
2021/06/19 00:07:57;;;;;;;3.45;1.73;;;22.60;99.90;;;21.59;65.27;100938.44;3520558;40;103219;-45
2021/06/19 00:10:24;;;;;;;2.67;1.58;;;22.60;99.90;;;21.56;64.57;100930.66;3520625;40;102280;-46
2021/06/19 00:12:54;;;;;;;3.50;1.65;;;22.60;99.90;;;21.50;65.13;100943.72;3520707;40;102281;-42
2021/06/19 00:15:24;;;;;;;3.22;1.50;;;22.60;99.90;;;21.42;65.67;100936.81;3520317;40;102379;-42
2021/06/19 00:17:54;;;;;;;2.88;1.65;;;22.50;99.90;;;21.28;65.78;100935.78;3521000;40;104173;-42
2021/06/19 00:20:27;;;;;;;4.35;1.40;;;22.40;99.90;;;21.24;66.66;100951.31;3521142;40;102410;-42
2021/06/19 00:22:55;;;;;;;2.60;1.48;;;22.40;99.90;;;21.14;67.16;100952.19;3520378;40;103334;-42
2021/06/19 00:25:26;;;;;;;2.47;1.90;;;22.30;99.90;;;21.04;67.59;100953.03;3520611;40;102120;-42
2021/06/19 00:27:54;;;;;;;3.10;1.67;;;22.20;99.90;;;20.95;68.31;100961.06;3520448;40;102321;-42
2021/06/19 00:30:29;;;;;;;2.28;1.42;;;22.10;99.90;;;20.82;68.31;100951.38;3520953;40;103624;-41
2021/06/19 00:32:56;;;;;;;3.47;1.50;;;22.00;99.90;;;20.76;68.81;100954.41;3666457;22;103470;-41
2021/06/19 00:35:24;;;;;;;4.35;1.50;;;21.80;99.90;;;20.64;68.82;100949.16;3543681;39;102394;-40
2021/06/19 00:37:51;;;;;;;2.95;1.67;;;21.80;99.90;;;20.54;69.38;100956.34;3539859;39;102199;-40
2021/06/19 00:40:21;;;;;;;3.53;1.90;;;21.70;99.90;;;20.47;69.98;100958.59;3539790;39;102363;-40
2021/06/19 00:42:55;;;;;;;;;;;21.60;99.90;;;20.43;69.76;100953.84;3540199;39;103587;-40
2021/06/19 00:45:25;;;;;;;3.85;1.60;;;21.50;99.90;;;20.38;70.20;100957.44;3539533;39;102315;-41
2021/06/19 00:47:53;;;;;;;4.43;1.75;;;21.50;99.90;;;20.33;70.82;100951.91;3530514;39;102156;-41
2021/06/19 00:50:22;;;;;;;2.60;1.58;;;21.50;99.90;;;20.30;70.90;100958.00;3539705;39;102442;-41
2021/06/19 00:52:50;;;;;;;3.47;1.77;;;21.40;99.90;;;20.25;71.23;100954.13;3539542;39;102491;-40
2021/06/19 00:55:18;;;;;;;3.05;1.67;;;21.40;99.90;;;20.20;71.63;100958.81;3539555;39;102121;-40
2021/06/19 00:57:48;;;;;;;1.98;1.50;;;21.30;99.90;;;20.13;71.58;100956.31;3539592;39;102278;-40
2021/06/19 01:00:17;;;;;;;2.85;1.73;;;21.30;99.90;;;20.11;71.98;100958.50;3539833;39;103503;-41
2021/06/19 01:02:45;;;;;;;2.50;1.70;;;21.20;99.90;;;20.16;71.67;100961.31;3539631;39;102397;-41
2021/06/19 01:05:13;;;;;;;;;;;21.30;99.90;;;20.12;71.57;100951.88;3540028;39;102539;-41
2021/06/19 01:07:41;;;;;;;3.08;1.80;;;21.20;99.90;;;20.09;71.68;100957.97;3539876;39;102269;-44
2021/06/19 01:10:09;;;;;;;2.95;1.80;;;21.20;99.90;;;20.07;71.59;100965.72;3539629;39;102145;-40
2021/06/19 01:12:42;;;;;;;3.78;1.92;;;21.20;99.90;;;20.01;72.16;100956.56;3539879;39;103153;-39
2021/06/19 01:15:10;;;;;;;3.70;1.90;;;21.10;99.90;;;19.95;72.48;100955.72;3539424;39;102575;-44
2021/06/19 01:17:38;;;;;;;3.22;1.95;;;21.10;99.90;;;19.91;72.01;100957.38;3540143;39;103380;-41
2021/06/19 01:20:11;;;;;;;2.92;1.88;;;21.00;99.90;;;19.89;72.50;100969.78;3539588;39;102852;-40
2021/06/19 01:22:46;;;;;;;2.90;2.00;;;21.00;99.90;;;19.86;72.64;100962.03;3539592;39;102318;-42
2021/06/19 01:25:20;;;;;;;3.25;1.90;;;21.00;99.90;;;19.82;72.70;100961.72;3540067;39;102530;-40
2021/06/19 01:27:52;;;;;;;3.25;1.88;;;21.00;99.90;;;19.79;72.89;100963.13;3540356;39;103198;-42
2021/06/19 01:30:26;;;;;;;3.92;1.98;;;20.90;99.90;;;19.78;73.57;100968.91;3539662;39;102133;-40
2021/06/19 01:32:55;;;;;;;3.58;2.10;;;20.90;99.90;;;19.74;74.02;100965.03;3539378;39;103321;-41
2021/06/19 01:35:24;;;;;;;3.95;1.98;;;20.90;99.90;;;19.70;74.04;100967.50;3539451;39;102793;-42
2021/06/19 01:37:55;;;;;;;3.78;2.20;;;20.90;99.90;;;19.64;74.39;100969.44;3539906;39;102165;-40
2021/06/19 01:40:31;;;;;;;2.63;1.80;;;20.80;99.90;;;19.59;74.29;100972.16;3539102;39;102346;-41
2021/06/19 01:43:00;;;;;;;3.80;1.80;;;20.70;99.90;;;19.56;74.69;100964.41;3539440;39;103362;-43
2021/06/19 01:45:34;;;;;;;4.78;2.10;;;20.70;99.90;;;19.51;74.39;100968.00;3539414;39;103147;-41
2021/06/19 01:48:08;;;;;;;2.50;1.70;;;20.70;99.90;;;19.48;74.80;100976.00;3539556;39;103145;-40
2021/06/19 01:50:36;;;;;;;3.38;1.98;;;20.60;99.90;;;19.40;74.93;100966.25;3539768;39;102462;-40
2021/06/19 01:53:05;;;;;;;2.47;1.83;;;20.60;99.90;;;19.38;75.08;100971.22;3539436;39;102197;-41
2021/06/19 01:55:33;;;;;;;3.05;2.00;;;20.50;99.90;;;19.33;75.48;100979.50;3539398;39;102337;-42
2021/06/19 01:58:02;;;;;;;3.90;2.22;;;20.50;99.90;;;19.29;75.22;100984.72;3539743;39;102298;-41
2021/06/19 02:00:36;;;;;;;2.95;1.70;;;20.40;99.90;;;19.21;75.16;100979.72;3539355;39;102591;-40
2021/06/19 02:03:08;;;;;;;3.60;1.60;;;20.40;99.90;;;19.29;74.97;100984.72;3539546;39;102512;-41
2021/06/19 02:05:37;;;;;;;2.78;1.83;;;20.40;99.90;;;19.36;74.45;100974.28;3539376;39;102506;-41
2021/06/19 02:08:08;;;;;;;2.75;1.67;;;20.50;99.90;;;19.40;74.08;100969.88;3539286;39;102288;-41
2021/06/19 02:10:39;;;;;;;2.90;1.50;;;20.50;99.90;;;19.57;73.24;100977.13;3539153;39;102412;-38
2021/06/19 02:13:09;;;;;;;3.03;1.65;;;20.60;99.90;;;19.54;73.34;100978.53;3539325;39;102338;-41
2021/06/19 02:15:39;;;;;;;2.60;1.70;;;20.60;99.90;;;19.58;72.91;100975.22;3539215;39;102176;-42
2021/06/19 02:18:08;;;;;;;2.83;1.50;;;20.60;99.90;;;19.57;72.85;100974.38;3539978;39;103293;-41
2021/06/19 02:20:35;;;;;;;2.67;1.45;;;20.70;99.90;;;19.63;72.51;100964.16;3530430;39;102409;-41
2021/06/19 02:23:04;;;;;;;3.83;1.55;;;20.70;99.90;;;19.60;72.82;100964.69;3538928;39;102449;-40
2021/06/19 02:25:32;;;;;;;3.47;1.50;;;20.70;99.90;;;19.58;72.80;100976.03;3539620;39;102322;-40
2021/06/19 02:28:07;;;;;;;3.15;1.60;;;20.70;99.90;;;19.53;72.43;100978.78;3539507;39;103119;-40
2021/06/19 02:30:41;;;;;;;2.25;1.48;;;20.70;99.90;;;19.50;72.30;100973.78;3539581;39;103349;-38
2021/06/19 02:33:09;;;;;;;3.60;1.50;;;20.60;99.90;;;19.43;72.75;100979.56;3539229;39;103592;-40
2021/06/19 02:35:41;;;;;;;2.38;1.30;;;20.60;99.90;;;19.39;72.77;100981.19;3539247;39;102527;-42
2021/06/19 02:38:09;;;;;;;2.88;1.48;;;20.50;99.90;;;19.32;73.09;100986.97;3539189;39;102327;-40
2021/06/19 02:40:41;;;;;;;4.07;1.40;;;20.50;99.90;;;19.27;73.24;100989.69;3539287;39;102432;-40
2021/06/19 02:43:10;;;;;;;2.47;1.30;;;20.40;99.90;;;19.22;74.43;100986.91;3539045;39;102346;-40
2021/06/19 02:45:39;;;;;;;3.03;1.77;;;20.30;99.90;;;19.11;74.90;100991.53;3539945;39;102486;-41
2021/06/19 02:48:08;;;;;;;3.15;1.60;;;20.30;99.90;;;19.01;75.12;100988.72;3540058;39;103228;-40
2021/06/19 02:50:40;;;;;;;2.20;1.50;;;20.20;99.90;;;18.91;75.43;100989.44;3539213;39;102945;-41
2021/06/19 02:53:09;;;;;;;1.35;1.13;;;20.10;99.90;;;18.82;75.78;101009.25;3539685;39;102358;-40
2021/06/19 02:55:39;;;;;;;1.60;1.25;;;20.00;99.90;;;18.76;76.38;101013.06;3538828;39;102425;-40
2021/06/19 02:58:09;;;;;;;3.08;1.63;;;19.90;99.90;;;18.65;76.34;101003.84;3539012;39;102338;-40
2021/06/19 03:00:38;;;;;;;2.65;1.50;;;19.90;99.90;;;18.63;76.59;101017.09;3539812;39;102161;-40
2021/06/19 03:03:07;;;;;;;2.72;1.63;;;19.80;99.90;;;18.57;76.94;101004.34;3539154;39;102113;-40
2021/06/19 03:05:38;;;;;;;2.72;1.50;;;19.80;99.90;;;18.54;77.28;101011.22;3538993;39;102399;-41
2021/06/19 03:08:06;;;;;;;3.00;1.40;;;19.70;99.90;;;18.53;77.33;101006.78;3539203;39;102399;-40
2021/06/19 03:10:39;;;;;;;2.40;1.60;;;19.70;99.90;;;18.49;77.00;101002.88;3539233;39;102284;-40
2021/06/19 03:13:07;;;;;;;3.10;1.48;;;19.70;99.90;;;18.43;76.91;101008.63;3539391;39;102196;-41
2021/06/19 03:15:35;;;;;;;3.28;1.45;;;19.60;99.90;;;18.35;77.20;101007.19;3539255;39;102234;-40
2021/06/19 03:18:03;;;;;;;2.20;1.40;;;19.50;99.90;;;18.46;77.37;101014.47;3539237;39;102179;-40
2021/06/19 03:20:31;;;;;;;3.00;1.60;;;19.60;99.90;;;18.47;76.66;101021.66;3539160;39;102145;-42
2021/06/19 03:23:04;;;;;;;2.38;1.27;;;19.60;99.90;;;18.45;76.76;101023.84;3539434;39;103316;-40
2021/06/19 03:25:42;;;;;;;2.50;1.33;;;19.60;99.90;;;18.48;76.35;101019.75;3539464;39;102613;-41
2021/06/19 03:28:12;;;;;;;2.63;1.20;;;19.60;99.90;;;18.47;76.50;101026.34;3539827;39;103136;-43
2021/06/19 03:30:45;;;;;;;1.95;1.35;;;19.60;99.90;;;18.50;76.13;101021.13;3538964;39;102593;-45
2021/06/19 03:33:15;;;;;;;2.90;1.55;;;19.70;99.90;;;18.47;76.76;101021.66;3538634;39;102859;-40
2021/06/19 03:35:44;;;;;;;2.00;1.23;;;19.60;99.90;;;18.54;76.73;101022.25;3538298;39;102467;-40
2021/06/19 03:38:11;;;;;;;1.63;1.10;;;19.60;99.90;;;18.54;76.20;101025.03;3539028;39;102399;-40
2021/06/19 03:40:39;;;;;;;2.03;1.23;;;19.70;99.90;;;18.59;76.72;101023.44;3538853;39;102365;-42
2021/06/19 03:43:07;;;;;;;;;;;19.70;99.90;;;18.68;75.99;101028.19;3539202;39;102233;-41
2021/06/19 03:45:36;;;;;;;2.28;1.13;;;19.80;99.90;;;18.79;75.67;101033.84;3539280;39;102436;-41
2021/06/19 03:48:06;;;;;;;1.63;1.20;;;19.80;99.90;;;18.74;75.49;101042.91;3539562;39;104171;-42
2021/06/19 03:50:33;;;;;;;3.33;1.45;;;19.80;99.90;;;18.77;75.63;101044.31;3538865;39;102371;-37
2021/06/19 03:53:01;;;;;;;;;;;19.80;99.90;;;18.73;76.06;101060.56;3539567;39;102506;-41
2021/06/19 03:55:29;;;;;;;2.55;1.50;;;19.80;99.90;;;18.76;76.53;101062.81;3538872;39;102180;-41
2021/06/19 03:58:00;;;;;;;2.60;1.35;;;19.80;99.90;;;18.73;76.01;101052.28;3539089;39;104229;-42
2021/06/19 04:00:29;;;;;;;3.38;1.30;;;19.80;99.90;;;18.70;76.16;101063.88;3539051;39;102407;-43
2021/06/19 04:02:58;;;;;;;2.05;1.25;;;19.80;99.90;;;18.63;76.44;101061.31;3539175;39;102266;-41
2021/06/19 04:05:26;;;;;;;2.33;1.25;;;19.80;99.90;;;18.59;76.63;101068.47;3538530;39;103273;-40
2021/06/19 04:07:54;;;;;;;3.47;1.40;;;19.70;99.90;;;18.56;76.74;101066.22;3538910;39;103309;-40
2021/06/19 04:10:23;;;;;;;3.28;1.20;;;19.70;99.90;;;18.51;77.31;101061.47;3538854;39;102597;-40
2021/06/19 04:12:51;;;;;;;2.45;1.20;;;19.70;99.90;;;18.48;77.51;101066.69;3539076;39;102333;-40
2021/06/19 04:15:19;;;;;;;;;;;19.60;99.90;;;18.45;77.90;101068.03;3539128;39;102770;-43
2021/06/19 04:17:47;;;;;;;2.08;1.30;;;19.60;99.90;;;18.47;77.95;101068.59;3538810;39;102251;-41
2021/06/19 04:20:16;;;;;;;2.00;1.30;;;19.60;99.90;;;18.51;77.70;101066.19;3539354;39;101920;-40
2021/06/19 04:22:45;;;;;;;3.45;1.30;;;19.60;99.90;;;18.53;77.94;101062.03;3538898;39;103469;-42
2021/06/19 04:25:16;;;;;;;1.55;1.15;;;19.60;99.90;;;18.66;77.50;101065.50;3538613;39;102326;-43
2021/06/19 04:27:53;;;;;;;2.03;1.20;;;19.70;99.90;;;18.85;76.16;101056.84;3538887;39;103340;-40
2021/06/19 04:30:23;;;;;;;3.30;1.30;;;19.80;99.90;;;18.97;75.98;101054.72;3538499;39;102443;-41
2021/06/19 04:32:54;;;;;;;3.13;1.20;;;19.90;99.90;;;19.13;75.26;101052.94;3538534;39;103297;-42
2021/06/19 04:35:25;;;;;;;2.00;1.30;;;20.10;99.90;;;19.22;75.49;101059.63;3538900;39;102786;-40
2021/06/19 04:37:53;;;;;;;1.88;1.30;;;20.20;99.90;;;19.27;74.49;101050.53;3538465;39;102103;-40
2021/06/19 04:40:47;;;;;;;2.08;1.27;;;20.30;99.90;;;19.50;73.56;101063.16;3538701;39;103558;-41
2021/06/19 04:43:14;;;;;;;2.15;1.23;;;20.40;99.90;;;19.73;73.38;101072.13;3538233;39;102843;-40
2021/06/19 04:45:42;;;;;;;2.92;1.20;;;20.60;99.90;;;19.89;72.12;101086.91;3538570;39;102372;-40
2021/06/19 04:48:10;;;;;;;2.42;1.15;;;20.80;99.90;;;20.09;72.28;101086.19;3529720;39;105106;-40
2021/06/19 04:50:37;;;;;;;2.05;1.20;;;20.90;99.90;;;20.27;72.17;101087.63;3540008;39;102145;-43
2021/06/19 04:53:06;;;;;;;1.55;1.25;;;21.10;99.90;;;20.52;72.32;101094.38;3540075;39;104166;-41
2021/06/19 04:55:34;;;;;;;1.65;1.13;;;21.30;99.90;;;20.68;70.36;101091.59;3539597;39;102536;-40
2021/06/19 04:58:03;;;;;;;2.33;1.48;;;21.50;99.90;;;20.88;69.77;101092.78;3539582;39;103229;-41
2021/06/19 05:00:33;;;;;;;2.25;1.25;;;21.70;99.90;;;21.02;70.05;101099.47;3540480;39;102290;-40
2021/06/19 05:03:01;;;;;;;2.33;1.20;;;21.80;99.90;;;21.19;68.20;101103.88;3539820;39;102798;-40
2021/06/19 05:05:29;;;;;;;1.48;1.15;;;22.00;99.90;;;21.35;68.26;101113.88;3539700;39;102845;-40
2021/06/19 05:07:57;;;;;;;2.10;1.20;;;22.10;99.90;;;21.33;66.07;101110.56;3539296;39;102284;-43
2021/06/19 05:10:25;;;;;;;3.25;1.10;;;22.20;99.90;;;21.47;67.25;101110.81;3539915;39;103335;-41
2021/06/19 05:12:53;;;;;;;2.00;1.38;;;22.30;99.90;;;21.59;65.78;101121.63;3540077;39;103377;-40
2021/06/19 05:15:24;;;;;;;2.53;1.10;;;22.40;99.90;;;21.68;65.09;101117.19;3539456;39;102380;-42
2021/06/19 05:17:55;;;;;;;4.18;1.38;;;22.50;99.90;;;21.83;65.17;101130.19;3539790;39;102802;-40
2021/06/19 05:20:27;;;;;;;2.28;1.42;;;22.60;99.90;;;21.94;65.70;101131.00;3539581;39;102247;-42
2021/06/19 05:22:56;;;;;;;2.28;1.05;;;22.80;99.90;;;22.08;65.15;101124.88;3539714;39;102310;-40
2021/06/19 05:25:26;;;;;;;2.25;1.15;;;22.90;99.90;;;22.09;64.55;101124.56;3539309;39;102446;-42
2021/06/19 05:27:54;;;;;;;1.70;0.85;;;23.00;99.90;;;22.17;64.61;101128.72;3540245;39;102171;-40
2021/06/19 05:30:21;;;;;;;1.27;0.90;;;23.00;99.90;;;22.20;62.57;101132.88;3540090;39;103460;-40
2021/06/19 05:32:48;;;;;;;2.50;1.13;;;23.10;99.90;;;22.25;64.18;101138.41;3539066;39;102408;-40
2021/06/19 05:35:16;;;;;;;1.92;1.20;;;23.10;99.90;;;22.37;63.33;101138.09;3540040;39;102258;-40
2021/06/19 05:37:43;;;;;;;1.30;1.02;;;23.20;99.90;;;22.50;63.74;101134.69;3539249;39;102318;-41
2021/06/19 05:40:11;;;;;;;1.67;1.08;;;23.30;99.90;;;22.69;61.58;101136.81;3539769;39;102510;-41
2021/06/19 05:42:39;;;;;;;4.13;1.20;;;23.50;99.90;;;22.79;61.69;101142.31;3539458;39;102194;-40
2021/06/19 05:45:08;;;;;;;2.17;1.10;;;23.60;99.90;;;22.91;61.76;101141.97;3539442;39;102403;-41
2021/06/19 05:47:35;;;;;;;1.70;1.20;;;23.60;99.90;;;22.98;63.14;101133.31;3539819;39;102232;-42
2021/06/19 05:50:05;;;;;;;2.17;1.20;;;23.70;99.90;;;22.99;59.51;101133.03;3539468;39;104163;-40
2021/06/19 05:52:33;;;;;;;2.20;1.38;;;23.80;99.90;;;22.82;61.19;101133.44;3539661;39;102206;-40
2021/06/19 05:55:01;;;;;;;2.17;1.25;;;23.80;99.90;;;22.86;60.21;101122.53;3539282;39;102627;-39
2021/06/19 05:57:28;;;;;;;2.47;1.30;;;23.80;99.90;;;22.88;60.00;101114.72;3539866;39;103023;-40
2021/06/19 05:59:56;;;;;;;2.00;1.13;;;23.80;99.90;;;22.92;60.99;101120.56;3539336;39;102282;-40
2021/06/19 06:02:23;;;;;;;3.92;1.60;;;23.80;99.90;;;22.90;59.86;101111.66;3539652;39;103069;-42
2021/06/19 06:04:51;;;;;;;;;;;23.90;99.90;;;22.95;61.23;101120.81;3540406;39;102393;-42
2021/06/19 06:07:18;;;;;;;2.28;1.20;;;23.80;99.90;;;23.04;59.81;101137.69;3539660;39;103249;-41
2021/06/19 06:09:46;;;;;;;3.45;1.30;;;23.90;99.90;;;22.84;59.09;101147.88;3540085;39;103301;-41
2021/06/19 06:12:13;;;;;;;2.20;1.30;;;23.80;99.90;;;22.58;60.53;101149.94;3539291;39;102394;-40
2021/06/19 06:14:41;;;;;;;2.38;1.20;;;23.70;99.90;;;22.38;60.64;101150.88;3539602;39;102553;-40
2021/06/19 06:17:08;;;;;;;1.85;1.40;;;23.50;99.90;;;22.55;61.66;101150.53;3539602;39;102263;-40
2021/06/19 06:19:36;;;;;;;2.75;1.40;;;23.50;99.90;;;22.79;60.99;101152.63;3539607;39;102220;-41
2021/06/19 06:22:04;;;;;;;2.40;1.25;;;23.60;99.90;;;22.84;58.79;101153.44;3539396;39;102268;-40
2021/06/19 06:24:32;;;;;;;3.75;1.38;;;23.70;99.90;;;22.90;59.82;101147.81;3539271;39;102396;-40
2021/06/19 06:27:00;;;;;;;2.22;1.23;;;23.70;99.90;;;23.07;60.18;101164.94;3539532;39;103379;-40
2021/06/19 06:29:28;;;;;;;2.92;1.38;;;23.80;99.90;;;23.19;58.32;101169.31;3539933;39;102235;-41
2021/06/19 06:32:06;;;;;;;3.65;1.30;;;24.00;99.90;;;23.17;59.19;101175.16;3540225;39;102135;-35
2021/06/19 06:34:33;;;;;;;2.28;1.27;;;24.00;99.90;;;23.31;58.18;101178.16;3518101;40;102253;-39
2021/06/19 06:37:01;;;;;;;1.70;1.27;;;24.10;99.90;;;23.50;58.41;101171.88;3510107;40;104423;-42
2021/06/19 06:39:29;;;;;;;1.67;1.20;;;24.20;99.90;;;23.64;57.19;101163.69;3511286;39;102260;-42
2021/06/19 06:41:58;;;;;;;2.92;1.40;;;24.40;99.90;;;23.62;56.75;101171.50;3510845;40;103175;-43
2021/06/19 06:44:25;;;;;;;2.10;1.27;;;24.40;99.90;;;23.70;57.89;101173.63;3500526;40;102207;-41
2021/06/19 06:46:53;;;;;;;2.50;1.40;;;24.50;99.90;;;23.62;57.51;101172.34;3500996;40;102284;-42
2021/06/19 06:49:20;;;;;;;2.60;1.33;;;24.50;99.90;;;23.82;56.42;101170.47;3500426;40;102499;-41
2021/06/19 06:51:48;;;;;;;2.50;1.23;;;24.60;99.90;;;23.88;54.63;101174.88;3500854;40;103167;-41
2021/06/19 06:54:15;;;;;;;2.92;1.13;;;24.60;99.90;;;23.85;56.33;101175.44;3500219;40;102458;-42
2021/06/19 06:56:43;;;;;;;2.58;1.38;;;24.70;99.90;;;24.01;57.11;101178.06;3500621;40;102297;-45
2021/06/19 06:59:10;;;;;;;2.80;1.20;;;24.70;99.90;;;23.93;55.10;101171.19;3500689;40;102373;-40
2021/06/19 07:01:38;;;;;;;2.28;1.20;;;24.80;99.90;;;24.04;55.35;101177.50;3500899;40;102160;-41
2021/06/19 07:04:06;;;;;;;3.30;1.25;;;24.80;99.90;;;24.07;56.48;101180.53;3500350;40;102433;-42
2021/06/19 07:06:33;;;;;;;2.72;1.27;;;24.80;99.90;;;24.07;55.44;101179.69;3500634;40;103273;-43
2021/06/19 07:09:01;;;;;;;1.88;1.10;;;24.90;99.90;;;24.07;54.55;101182.50;3500510;40;102418;-41
2021/06/19 07:11:28;;;;;;;;;;;24.90;99.90;;;24.21;53.78;101182.59;3500900;40;102449;-40
2021/06/19 07:13:56;;;;;;;2.33;1.20;;;25.00;99.90;;;24.25;54.51;101178.09;3500756;40;102318;-42
2021/06/19 07:16:23;;;;;;;2.10;1.35;;;25.00;99.90;;;24.49;54.62;101178.09;3500652;40;103259;-41
2021/06/19 07:18:51;;;;;;;;;;;25.10;99.90;;;24.63;52.76;101177.34;3501760;40;102377;-41
2021/06/19 07:21:18;;;;;;;2.35;1.40;;;25.30;99.90;;;24.67;52.83;101181.22;3500462;40;102954;-42
2021/06/19 07:23:46;;;;;;;3.90;1.33;;;25.30;99.90;;;24.87;52.88;101170.91;3507538;40;102513;-42
2021/06/19 07:26:14;;;;;;;4.18;1.48;;;25.50;99.90;;;24.98;53.16;101178.81;3500589;40;102246;-42
2021/06/19 07:28:43;;;;;;;;;;;25.60;99.90;;;25.02;52.64;101173.47;3501242;40;102327;-42
2021/06/19 07:31:13;;;;;;;2.10;1.30;;;25.70;99.90;;;25.17;52.86;101168.78;3500330;40;103184;-44
2021/06/19 07:33:42;;;;;;;1.50;1.17;;;25.70;99.90;;;25.22;50.97;101166.75;3500693;40;102547;-44
2021/06/19 07:36:10;;;;;;;2.15;1.17;;;25.80;99.90;;;25.38;51.96;101172.91;3500582;40;103800;-44
2021/06/19 07:38:38;;;;;;;2.28;1.10;;;26.00;99.90;;;25.35;49.46;101167.94;3500850;40;102235;-41
2021/06/19 07:41:06;;;;;;;2.55;1.25;;;26.00;99.90;;;25.41;49.72;101185.44;3500267;40;102297;-42
2021/06/19 07:43:33;;;;;;;;;;;26.10;99.90;;;25.49;49.81;101178.34;3501070;40;102425;-42
2021/06/19 07:46:01;;;;;;;2.53;1.20;;;26.10;99.90;;;25.50;50.63;101169.66;3500688;40;103156;-42
2021/06/19 07:48:29;;;;;;;3.78;1.52;;;26.20;99.90;;;25.46;49.77;101159.38;3500435;40;102345;-41
2021/06/19 07:50:56;;;;;;;;;;;26.10;99.90;;;25.60;51.70;101165.03;3500688;40;103381;-42
2021/06/19 07:53:23;;;;;;;2.88;1.20;;;26.20;99.90;;;25.75;51.85;101161.13;3500398;40;102238;-41
2021/06/19 07:55:51;;;;;;;;;;;26.30;99.90;;;25.98;51.30;101160.09;3500715;40;102439;-41
2021/06/19 07:58:18;;;;;;;2.22;1.33;;;26.50;99.90;;;26.17;50.37;101153.63;3500043;40;103535;-42
2021/06/19 08:00:46;;;;;;;;;;;26.60;99.90;;;26.22;51.83;101163.88;3501087;40;103409;-42
2021/06/19 08:03:13;;;;;;;2.28;1.20;;;26.70;99.90;;;26.19;49.79;101159.72;3500232;40;102334;-42
2021/06/19 08:05:41;;;;;;;1.90;1.20;;;26.70;99.90;;;26.21;49.67;101151.03;3499878;40;102334;-42
2021/06/19 08:08:08;;;;;;;3.22;1.40;;;26.80;99.90;;;26.29;47.82;101147.50;3500932;40;102658;-41
2021/06/19 08:10:36;;;;;;;2.75;1.42;;;26.90;99.10;;;26.25;49.03;101146.47;3500377;40;102116;-41
2021/06/19 08:13:03;;;;;;;2.78;1.20;;;26.80;99.40;;;26.27;48.75;101139.44;3500648;40;103014;-42
2021/06/19 08:15:33;;;;;;;2.53;1.50;;;26.80;98.70;;;26.07;48.49;101139.84;3500040;40;103198;-43
2021/06/19 08:18:02;;;;;;;2.53;1.40;;;26.80;98.30;;;26.04;49.54;101143.25;3499920;40;102367;-43
2021/06/19 08:20:31;;;;;;;2.88;1.50;;;26.80;99.10;;;26.23;51.15;101140.38;3499665;40;102317;-42
2021/06/19 08:22:59;;;;;;;2.13;1.15;;;26.80;99.90;;;26.33;47.89;101144.94;3501298;40;102877;-42
2021/06/19 08:25:26;;;;;;;2.45;1.00;;;26.90;98.50;;;26.50;48.36;101147.88;3501585;40;102192;-42
2021/06/19 08:27:54;;;;;;;2.40;0.90;;;27.00;98.50;;;26.59;48.45;101147.16;3501390;40;102613;-42
2021/06/19 08:30:21;;;;;;;1.92;1.00;;;;;;;26.70;46.53;101151.38;3501348;40;102293;-41
2021/06/19 08:32:49;;;;;;;2.20;1.25;;;;;;;26.60;46.87;101141.25;3501299;40;102525;-41
2021/06/19 08:35:17;;;;;;;1.60;1.10;;;;;;;26.53;46.94;101141.69;3501407;40;102213;-42
2021/06/19 08:37:45;;;;;;;1.73;1.08;;;;;;;26.68;47.94;101137.72;3501467;40;102412;-41
2021/06/19 08:40:13;;;;;;;3.13;1.10;;;;;;;26.91;47.00;101134.16;3501560;40;103216;-42
2021/06/19 08:42:42;;;;;;;1.77;1.02;;;;;;;27.06;47.41;101136.59;3501862;40;102108;-42
2021/06/19 08:45:10;;;;;;;2.10;1.10;;;;;;;26.97;47.30;101139.31;3501160;40;103048;-38
2021/06/19 08:47:39;;;;;;;1.33;0.90;;;;;;;27.12;46.49;101135.31;3501399;40;102540;-42
2021/06/19 08:50:10;;;;;;;2.97;1.20;;;;;;;27.06;44.20;101141.34;3501290;40;102194;-44
2021/06/19 08:52:39;;;;;;;1.30;0.90;;;;;;;27.11;46.64;101144.84;3501689;40;102231;-42
2021/06/19 08:55:11;;;;;;;2.72;1.15;;;;;;;27.11;45.94;101139.25;3501332;40;103355;-41
2021/06/19 08:57:39;;;;;;;2.72;1.00;;;;;;;27.06;44.67;101139.38;3501357;40;102234;-42
2021/06/19 09:00:09;;;;;;;1.45;1.05;;;;;;;27.12;47.29;101134.47;3501323;40;103115;-41
2021/06/19 09:02:38;;;;;;;2.95;1.23;;;;;;;27.11;46.32;101144.00;3501359;40;102328;-43
2021/06/19 09:05:08;;;;;;;1.60;1.00;;;;;;;27.24;44.33;101133.91;3501169;40;102342;-45
2021/06/19 09:07:46;;;;;;;1.48;0.95;;;;;;;27.07;43.43;101134.59;3508335;40;102451;-42
2021/06/19 09:10:28;;;;;;;1.50;1.10;;;;;;;27.19;46.00;101128.44;3501347;40;102350;-42
2021/06/19 09:13:05;;;;;;;2.35;1.40;;;;;;;26.84;46.58;101132.63;3501076;40;103365;-45
2021/06/19 09:15:48;;;;;;;2.30;1.25;;;;;;;27.08;46.62;101131.50;3500797;40;102319;-42
2021/06/19 09:18:17;;;;;;;2.90;1.40;;;;;;;27.12;44.35;101120.47;3501174;40;104395;-42
2021/06/19 09:21:00;;;;;;;1.33;1.00;;;;;;;27.21;45.43;101126.97;3500941;40;103896;-42
2021/06/19 09:23:46;;;;;;;2.25;1.00;;;;;;;27.32;44.80;101107.94;3500954;40;103608;-43
2021/06/19 09:26:19;;;;;;;2.17;1.00;;;;;;;27.32;44.38;101104.28;3501509;40;102196;-41
2021/06/19 09:29:14;;;;;;;2.65;1.20;;;;;;;27.54;46.09;101100.66;3501128;40;102333;-42
2021/06/19 09:31:48;;;;;;;2.55;1.02;;;;;;;27.64;44.98;101100.38;3500834;40;103279;-39
2021/06/19 09:34:24;;;;;;;1.85;0.98;;;;;;;27.73;45.70;101102.41;3500419;40;102476;-42
2021/06/19 09:36:53;;;;;;;1.60;1.00;;;;;;;27.80;45.17;101105.53;3500862;40;104469;-42
2021/06/19 09:39:29;;;;;;;1.30;1.00;;;;;;;27.89;46.03;101100.81;3501775;40;102523;-43
2021/06/19 09:41:59;;;;;;;0.95;0.80;;;;;;;28.04;43.96;101091.13;3501531;40;103328;-42
2021/06/19 09:44:46;;;;;;;1.15;0.80;;;;;;;28.02;44.98;101084.19;3500500;40;103247;-42
2021/06/19 09:47:19;;;;;;;1.55;0.93;;;;;;;28.09;43.98;101076.97;3501153;40;102315;-41
2021/06/19 09:49:49;;;;;;;1.35;0.82;;;;;;;28.28;45.59;101087.91;3501001;40;102585;-40
2021/06/19 09:52:28;;;;;;;1.98;0.80;;;;;;;28.22;41.62;101094.00;3500979;40;103466;-42
2021/06/19 09:54:58;;;;;;;1.20;0.80;;;;;;;28.33;43.07;101100.13;3500728;40;102418;-43
2021/06/19 09:57:44;;;;;;;1.23;0.80;;;;;;;28.51;42.80;101093.38;3508220;40;102779;-41
2021/06/19 10:00:17;;;;;;;1.63;0.88;;;;;;;28.57;42.54;101094.06;3501630;40;102605;-41
2021/06/19 10:02:47;;;;;;;2.47;0.88;;;;;;;28.74;42.57;101084.81;3501058;40;102294;-42
2021/06/19 10:05:15;;;;;;;1.58;0.80;;;;;;;28.68;40.67;101094.56;3500994;40;102358;-42
2021/06/19 10:07:46;;;;;;;1.95;0.65;;;;;;;28.42;39.49;101086.94;3501036;40;102715;-41
2021/06/19 10:10:14;;;;;;;4.13;1.15;;;;;;;28.51;40.50;101095.34;3501092;40;102348;-42
2021/06/19 10:12:42;;;;;;;2.95;0.95;;;;;;;28.57;40.78;101092.06;3501167;40;102274;-42
2021/06/19 10:15:15;;;;;;;3.05;0.90;;;;;;;28.79;41.20;101090.28;3500774;40;102242;-40
2021/06/19 10:17:45;;;;;;;1.42;0.85;;;;;;;28.84;42.50;101097.72;3501320;40;102340;-38
2021/06/19 10:20:17;;;;;;;1.65;1.05;;;;;;;28.68;40.15;101094.56;3501125;40;102446;-42
2021/06/19 10:22:46;;;;;;;1.67;0.52;;;;;;;28.78;41.22;101087.75;3500847;40;102555;-41
2021/06/19 10:25:20;;;;;;;1.08;0.80;;;;;;;28.76;40.50;101093.72;3501118;40;104277;-40
2021/06/19 10:27:50;;;;;;;1.13;0.75;;;;;;;28.81;40.64;101082.34;3500664;40;102346;-42
2021/06/19 10:30:25;;;;;;;1.15;0.80;;;;;;;28.93;39.92;101086.50;3501283;40;102395;-44
2021/06/19 10:33:29;;;;;;;3.35;1.65;;;;;;;28.98;42.30;101080.69;3500676;40;102815;-41